sensor_id;sensor_type;location;lat;lon;timestamp;P1;durP1;ratioP1;P2;durP2;ratioP2
3939;SDS011;1984;48.312;9.244;2023-05-07T00:00:18;1.97;;;1.87;;
3939;SDS011;1984;48.312;9.244;2023-05-07T00:02:44;6.07;;;1.90;;
3939;SDS011;1984;48.312;9.244;2023-05-07T00:05:10;3.70;;;2.23;;
3939;SDS011;1984;48.312;9.244;2023-05-07T00:07:36;1.87;;;1.77;;
3939;SDS011;1984;48.312;9.244;2023-05-07T00:10:02;2.90;;;1.70;;
3939;SDS011;1984;48.312;9.244;2023-05-07T00:12:28;5.17;;;1.77;;
3939;SDS011;1984;48.312;9.244;2023-05-07T00:14:56;3.17;;;2.27;;
3939;SDS011;1984;48.312;9.244;2023-05-07T00:17:22;5.10;;;1.93;;
3939;SDS011;1984;48.312;9.244;2023-05-07T00:19:48;1.80;;;1.70;;
3939;SDS011;1984;48.312;9.244;2023-05-07T00:22:13;2.80;;;2.10;;
3939;SDS011;1984;48.312;9.244;2023-05-07T00:24:39;2.10;;;1.87;;
3939;SDS011;1984;48.312;9.244;2023-05-07T00:27:04;1.80;;;1.70;;
3939;SDS011;1984;48.312;9.244;2023-05-07T00:29:30;2.07;;;1.97;;
3939;SDS011;1984;48.312;9.244;2023-05-07T00:31:55;1.60;;;1.50;;
3939;SDS011;1984;48.312;9.244;2023-05-07T00:34:21;1.77;;;1.67;;
3939;SDS011;1984;48.312;9.244;2023-05-07T00:36:47;1.90;;;1.80;;
3939;SDS011;1984;48.312;9.244;2023-05-07T00:39:13;7.43;;;1.90;;
3939;SDS011;1984;48.312;9.244;2023-05-07T00:41:38;1.90;;;1.80;;
3939;SDS011;1984;48.312;9.244;2023-05-07T00:44:04;8.53;;;2.17;;
3939;SDS011;1984;48.312;9.244;2023-05-07T00:46:30;1.83;;;1.73;;
3939;SDS011;1984;48.312;9.244;2023-05-07T00:48:56;3.03;;;2.23;;
3939;SDS011;1984;48.312;9.244;2023-05-07T00:51:22;1.80;;;1.70;;
3939;SDS011;1984;48.312;9.244;2023-05-07T00:53:50;2.07;;;1.97;;
3939;SDS011;1984;48.312;9.244;2023-05-07T00:56:15;1.70;;;1.60;;
3939;SDS011;1984;48.312;9.244;2023-05-07T00:58:41;1.80;;;1.70;;
3939;SDS011;1984;48.312;9.244;2023-05-07T01:01:07;1.90;;;1.80;;
3939;SDS011;1984;48.312;9.244;2023-05-07T01:03:33;2.10;;;2.00;;
3939;SDS011;1984;48.312;9.244;2023-05-07T01:05:58;2.27;;;1.97;;
3939;SDS011;1984;48.312;9.244;2023-05-07T01:08:25;3.23;;;1.50;;
3939;SDS011;1984;48.312;9.244;2023-05-07T01:10:54;2.00;;;1.90;;
3939;SDS011;1984;48.312;9.244;2023-05-07T01:13:21;1.83;;;1.73;;
3939;SDS011;1984;48.312;9.244;2023-05-07T01:15:48;2.13;;;1.90;;
3939;SDS011;1984;48.312;9.244;2023-05-07T01:18:13;4.27;;;2.83;;
3939;SDS011;1984;48.312;9.244;2023-05-07T01:20:40;2.83;;;2.47;;
3939;SDS011;1984;48.312;9.244;2023-05-07T01:23:06;2.90;;;2.10;;
3939;SDS011;1984;48.312;9.244;2023-05-07T01:25:32;2.47;;;2.37;;
3939;SDS011;1984;48.312;9.244;2023-05-07T01:27:58;8.27;;;2.30;;
3939;SDS011;1984;48.312;9.244;2023-05-07T01:30:27;2.30;;;2.20;;
3939;SDS011;1984;48.312;9.244;2023-05-07T01:33:01;2.20;;;2.00;;
3939;SDS011;1984;48.312;9.244;2023-05-07T01:35:38;3.30;;;2.23;;
3939;SDS011;1984;48.312;9.244;2023-05-07T01:38:08;2.40;;;1.80;;
3939;SDS011;1984;48.312;9.244;2023-05-07T01:40:34;1.90;;;1.80;;
3939;SDS011;1984;48.312;9.244;2023-05-07T01:43:00;2.70;;;2.07;;
3939;SDS011;1984;48.312;9.244;2023-05-07T01:45:27;2.30;;;1.70;;
3939;SDS011;1984;48.312;9.244;2023-05-07T01:47:53;2.80;;;2.23;;
3939;SDS011;1984;48.312;9.244;2023-05-07T01:50:20;2.10;;;2.00;;
3939;SDS011;1984;48.312;9.244;2023-05-07T01:52:46;1.90;;;1.80;;
3939;SDS011;1984;48.312;9.244;2023-05-07T01:55:15;8.13;;;2.20;;
3939;SDS011;1984;48.312;9.244;2023-05-07T01:57:40;2.20;;;2.00;;
3939;SDS011;1984;48.312;9.244;2023-05-07T02:00:06;2.13;;;2.00;;
3939;SDS011;1984;48.312;9.244;2023-05-07T02:02:33;2.73;;;2.10;;
3939;SDS011;1984;48.312;9.244;2023-05-07T02:04:59;2.07;;;1.97;;
3939;SDS011;1984;48.312;9.244;2023-05-07T02:07:26;4.50;;;1.97;;
3939;SDS011;1984;48.312;9.244;2023-05-07T02:09:52;1.70;;;1.60;;
3939;SDS011;1984;48.312;9.244;2023-05-07T02:12:18;2.30;;;2.20;;
3939;SDS011;1984;48.312;9.244;2023-05-07T02:14:44;3.07;;;2.20;;
3939;SDS011;1984;48.312;9.244;2023-05-07T02:17:09;1.80;;;1.70;;
3939;SDS011;1984;48.312;9.244;2023-05-07T02:19:35;1.77;;;1.67;;
3939;SDS011;1984;48.312;9.244;2023-05-07T02:22:00;2.33;;;2.20;;
3939;SDS011;1984;48.312;9.244;2023-05-07T02:24:26;10.80;;;2.77;;
3939;SDS011;1984;48.312;9.244;2023-05-07T02:26:51;2.43;;;2.23;;
3939;SDS011;1984;48.312;9.244;2023-05-07T02:29:17;4.33;;;2.20;;
3939;SDS011;1984;48.312;9.244;2023-05-07T02:31:42;4.90;;;2.30;;
3939;SDS011;1984;48.312;9.244;2023-05-07T02:34:08;1.83;;;1.73;;
3939;SDS011;1984;48.312;9.244;2023-05-07T02:36:33;7.83;;;2.17;;
3939;SDS011;1984;48.312;9.244;2023-05-07T02:38:59;2.20;;;2.00;;
3939;SDS011;1984;48.312;9.244;2023-05-07T02:41:25;5.70;;;1.93;;
3939;SDS011;1984;48.312;9.244;2023-05-07T02:43:52;8.53;;;1.90;;
3939;SDS011;1984;48.312;9.244;2023-05-07T02:46:18;4.53;;;2.10;;
3939;SDS011;1984;48.312;9.244;2023-05-07T02:48:44;2.97;;;1.83;;
3939;SDS011;1984;48.312;9.244;2023-05-07T02:51:09;3.33;;;1.73;;
3939;SDS011;1984;48.312;9.244;2023-05-07T02:53:35;2.87;;;1.87;;
3939;SDS011;1984;48.312;9.244;2023-05-07T02:56:01;2.10;;;2.00;;
3939;SDS011;1984;48.312;9.244;2023-05-07T02:58:27;2.17;;;2.07;;
3939;SDS011;1984;48.312;9.244;2023-05-07T03:00:53;2.80;;;2.00;;
3939;SDS011;1984;48.312;9.244;2023-05-07T03:03:19;2.30;;;2.10;;
3939;SDS011;1984;48.312;9.244;2023-05-07T03:05:45;4.10;;;2.17;;
3939;SDS011;1984;48.312;9.244;2023-05-07T03:08:11;1.83;;;1.73;;
3939;SDS011;1984;48.312;9.244;2023-05-07T03:10:37;3.10;;;2.23;;
3939;SDS011;1984;48.312;9.244;2023-05-07T03:13:02;2.20;;;2.00;;
3939;SDS011;1984;48.312;9.244;2023-05-07T03:15:29;6.50;;;2.20;;
3939;SDS011;1984;48.312;9.244;2023-05-07T03:17:55;2.40;;;1.77;;
3939;SDS011;1984;48.312;9.244;2023-05-07T03:20:21;2.13;;;1.87;;
3939;SDS011;1984;48.312;9.244;2023-05-07T03:22:46;3.90;;;1.70;;
3939;SDS011;1984;48.312;9.244;2023-05-07T03:25:12;2.03;;;1.93;;
3939;SDS011;1984;48.312;9.244;2023-05-07T03:27:39;2.30;;;1.67;;
3939;SDS011;1984;48.312;9.244;2023-05-07T03:30:04;1.77;;;1.67;;
3939;SDS011;1984;48.312;9.244;2023-05-07T03:32:31;2.17;;;1.80;;
3939;SDS011;1984;48.312;9.244;2023-05-07T03:34:57;4.00;;;2.00;;
3939;SDS011;1984;48.312;9.244;2023-05-07T03:37:22;4.07;;;2.10;;
3939;SDS011;1984;48.312;9.244;2023-05-07T03:39:48;2.10;;;2.00;;
3939;SDS011;1984;48.312;9.244;2023-05-07T03:42:14;2.50;;;2.30;;
3939;SDS011;1984;48.312;9.244;2023-05-07T03:44:39;2.23;;;2.10;;
3939;SDS011;1984;48.312;9.244;2023-05-07T03:47:05;2.20;;;2.10;;
3939;SDS011;1984;48.312;9.244;2023-05-07T03:49:31;2.43;;;2.23;;
3939;SDS011;1984;48.312;9.244;2023-05-07T03:51:56;3.07;;;2.33;;
3939;SDS011;1984;48.312;9.244;2023-05-07T03:54:22;2.30;;;2.10;;
3939;SDS011;1984;48.312;9.244;2023-05-07T03:56:47;3.03;;;2.37;;
3939;SDS011;1984;48.312;9.244;2023-05-07T03:59:13;4.00;;;1.80;;
3939;SDS011;1984;48.312;9.244;2023-05-07T04:01:39;2.20;;;2.10;;
3939;SDS011;1984;48.312;9.244;2023-05-07T04:04:04;2.57;;;2.37;;
3939;SDS011;1984;48.312;9.244;2023-05-07T04:06:30;4.63;;;2.50;;
3939;SDS011;1984;48.312;9.244;2023-05-07T04:08:56;2.30;;;2.10;;
3939;SDS011;1984;48.312;9.244;2023-05-07T04:11:22;2.40;;;2.07;;
3939;SDS011;1984;48.312;9.244;2023-05-07T04:13:47;3.53;;;2.60;;
3939;SDS011;1984;48.312;9.244;2023-05-07T04:16:13;5.83;;;2.47;;
3939;SDS011;1984;48.312;9.244;2023-05-07T04:18:39;2.90;;;2.47;;
3939;SDS011;1984;48.312;9.244;2023-05-07T04:21:04;4.60;;;2.70;;
3939;SDS011;1984;48.312;9.244;2023-05-07T04:23:30;2.90;;;2.70;;
3939;SDS011;1984;48.312;9.244;2023-05-07T04:25:56;3.90;;;3.20;;
3939;SDS011;1984;48.312;9.244;2023-05-07T04:28:22;3.20;;;3.00;;
3939;SDS011;1984;48.312;9.244;2023-05-07T04:30:48;2.60;;;2.40;;
3939;SDS011;1984;48.312;9.244;2023-05-07T04:33:14;3.40;;;2.30;;
3939;SDS011;1984;48.312;9.244;2023-05-07T04:35:41;5.00;;;2.83;;
3939;SDS011;1984;48.312;9.244;2023-05-07T04:38:07;2.83;;;2.60;;
3939;SDS011;1984;48.312;9.244;2023-05-07T04:40:33;3.03;;;2.77;;
3939;SDS011;1984;48.312;9.244;2023-05-07T04:43:00;3.37;;;3.07;;
3939;SDS011;1984;48.312;9.244;2023-05-07T04:45:26;3.20;;;2.90;;
3939;SDS011;1984;48.312;9.244;2023-05-07T04:47:51;2.97;;;2.77;;
3939;SDS011;1984;48.312;9.244;2023-05-07T04:50:17;3.30;;;3.03;;
3939;SDS011;1984;48.312;9.244;2023-05-07T04:52:44;3.80;;;3.47;;
3939;SDS011;1984;48.312;9.244;2023-05-07T04:55:10;4.07;;;3.40;;
3939;SDS011;1984;48.312;9.244;2023-05-07T04:57:36;3.23;;;2.93;;
3939;SDS011;1984;48.312;9.244;2023-05-07T05:00:02;2.50;;;2.40;;
3939;SDS011;1984;48.312;9.244;2023-05-07T05:02:29;2.83;;;2.60;;
3939;SDS011;1984;48.312;9.244;2023-05-07T05:04:54;3.80;;;2.60;;
3939;SDS011;1984;48.312;9.244;2023-05-07T05:07:20;3.00;;;2.80;;
3939;SDS011;1984;48.312;9.244;2023-05-07T05:09:45;3.17;;;2.90;;
3939;SDS011;1984;48.312;9.244;2023-05-07T05:12:11;3.10;;;2.73;;
3939;SDS011;1984;48.312;9.244;2023-05-07T05:14:36;1.87;;;1.77;;
3939;SDS011;1984;48.312;9.244;2023-05-07T05:17:02;2.57;;;2.30;;
3939;SDS011;1984;48.312;9.244;2023-05-07T05:19:27;2.43;;;2.33;;
3939;SDS011;1984;48.312;9.244;2023-05-07T05:21:53;3.30;;;2.13;;
3939;SDS011;1984;48.312;9.244;2023-05-07T05:24:19;5.80;;;2.30;;
3939;SDS011;1984;48.312;9.244;2023-05-07T05:26:44;2.70;;;2.50;;
3939;SDS011;1984;48.312;9.244;2023-05-07T05:29:10;2.90;;;2.70;;
3939;SDS011;1984;48.312;9.244;2023-05-07T05:31:36;2.40;;;2.30;;
3939;SDS011;1984;48.312;9.244;2023-05-07T05:34:02;1.97;;;1.87;;
3939;SDS011;1984;48.312;9.244;2023-05-07T05:36:27;5.00;;;2.43;;
3939;SDS011;1984;48.312;9.244;2023-05-07T05:38:53;2.70;;;2.30;;
3939;SDS011;1984;48.312;9.244;2023-05-07T05:41:18;4.43;;;2.07;;
3939;SDS011;1984;48.312;9.244;2023-05-07T05:43:44;2.20;;;2.00;;
3939;SDS011;1984;48.312;9.244;2023-05-07T05:46:09;2.80;;;2.60;;
3939;SDS011;1984;48.312;9.244;2023-05-07T05:48:36;3.30;;;2.23;;
3939;SDS011;1984;48.312;9.244;2023-05-07T05:51:02;2.43;;;2.30;;
3939;SDS011;1984;48.312;9.244;2023-05-07T05:53:27;8.33;;;2.83;;
3939;SDS011;1984;48.312;9.244;2023-05-07T05:55:53;2.97;;;2.77;;
3939;SDS011;1984;48.312;9.244;2023-05-07T05:58:18;2.77;;;2.57;;
3939;SDS011;1984;48.312;9.244;2023-05-07T06:00:45;2.47;;;2.27;;
3939;SDS011;1984;48.312;9.244;2023-05-07T06:03:13;4.23;;;2.83;;
3939;SDS011;1984;48.312;9.244;2023-05-07T06:05:38;3.57;;;3.27;;
3939;SDS011;1984;48.312;9.244;2023-05-07T06:08:04;3.53;;;3.27;;
3939;SDS011;1984;48.312;9.244;2023-05-07T06:10:29;4.93;;;4.53;;
3939;SDS011;1984;48.312;9.244;2023-05-07T06:12:55;8.73;;;6.20;;
3939;SDS011;1984;48.312;9.244;2023-05-07T06:15:21;10.93;;;6.10;;
3939;SDS011;1984;48.312;9.244;2023-05-07T06:17:46;12.30;;;7.43;;
3939;SDS011;1984;48.312;9.244;2023-05-07T06:20:12;11.20;;;7.77;;
3939;SDS011;1984;48.312;9.244;2023-05-07T06:22:37;8.67;;;7.37;;
3939;SDS011;1984;48.312;9.244;2023-05-07T06:25:03;10.63;;;8.30;;
3939;SDS011;1984;48.312;9.244;2023-05-07T06:27:28;9.07;;;6.60;;
3939;SDS011;1984;48.312;9.244;2023-05-07T06:29:54;10.50;;;7.70;;
3939;SDS011;1984;48.312;9.244;2023-05-07T06:32:20;14.37;;;8.30;;
3939;SDS011;1984;48.312;9.244;2023-05-07T06:34:45;14.40;;;8.70;;
3939;SDS011;1984;48.312;9.244;2023-05-07T06:37:11;7.90;;;5.03;;
3939;SDS011;1984;48.312;9.244;2023-05-07T06:39:37;8.73;;;5.73;;
3939;SDS011;1984;48.312;9.244;2023-05-07T06:42:03;6.63;;;4.40;;
3939;SDS011;1984;48.312;9.244;2023-05-07T06:44:29;6.13;;;4.53;;
3939;SDS011;1984;48.312;9.244;2023-05-07T06:46:55;4.20;;;3.70;;
3939;SDS011;1984;48.312;9.244;2023-05-07T06:49:20;3.47;;;3.17;;
3939;SDS011;1984;48.312;9.244;2023-05-07T06:51:46;3.30;;;3.00;;
3939;SDS011;1984;48.312;9.244;2023-05-07T06:54:12;3.80;;;3.30;;
3939;SDS011;1984;48.312;9.244;2023-05-07T06:56:37;3.67;;;3.37;;
3939;SDS011;1984;48.312;9.244;2023-05-07T06:59:03;6.67;;;3.10;;
3939;SDS011;1984;48.312;9.244;2023-05-07T07:01:28;2.43;;;2.23;;
3939;SDS011;1984;48.312;9.244;2023-05-07T07:03:54;2.77;;;2.37;;
3939;SDS011;1984;48.312;9.244;2023-05-07T07:06:20;3.00;;;2.80;;
3939;SDS011;1984;48.312;9.244;2023-05-07T07:08:45;5.43;;;2.40;;
3939;SDS011;1984;48.312;9.244;2023-05-07T07:11:11;4.37;;;3.97;;
3939;SDS011;1984;48.312;9.244;2023-05-07T07:13:37;3.20;;;3.00;;
3939;SDS011;1984;48.312;9.244;2023-05-07T07:16:02;2.87;;;2.67;;
3939;SDS011;1984;48.312;9.244;2023-05-07T07:18:28;2.97;;;2.67;;
3939;SDS011;1984;48.312;9.244;2023-05-07T07:20:54;3.80;;;2.80;;
3939;SDS011;1984;48.312;9.244;2023-05-07T07:23:19;3.83;;;3.00;;
3939;SDS011;1984;48.312;9.244;2023-05-07T07:25:45;3.70;;;3.13;;
3939;SDS011;1984;48.312;9.244;2023-05-07T07:28:11;4.97;;;3.47;;
3939;SDS011;1984;48.312;9.244;2023-05-07T07:30:36;3.50;;;2.90;;
3939;SDS011;1984;48.312;9.244;2023-05-07T07:33:02;3.80;;;2.73;;
3939;SDS011;1984;48.312;9.244;2023-05-07T07:35:29;6.50;;;2.70;;
3939;SDS011;1984;48.312;9.244;2023-05-07T07:37:55;7.10;;;3.43;;
3939;SDS011;1984;48.312;9.244;2023-05-07T07:40:21;3.50;;;3.20;;
3939;SDS011;1984;48.312;9.244;2023-05-07T07:42:46;3.17;;;2.77;;
3939;SDS011;1984;48.312;9.244;2023-05-07T07:45:12;2.83;;;2.63;;
3939;SDS011;1984;48.312;9.244;2023-05-07T07:47:38;3.20;;;2.97;;
3939;SDS011;1984;48.312;9.244;2023-05-07T07:50:04;3.40;;;3.10;;
3939;SDS011;1984;48.312;9.244;2023-05-07T07:52:30;2.50;;;2.30;;
3939;SDS011;1984;48.312;9.244;2023-05-07T07:54:56;5.70;;;2.73;;
3939;SDS011;1984;48.312;9.244;2023-05-07T07:57:21;4.20;;;2.47;;
3939;SDS011;1984;48.312;9.244;2023-05-07T07:59:47;3.17;;;2.90;;
3939;SDS011;1984;48.312;9.244;2023-05-07T08:02:12;3.80;;;3.00;;
3939;SDS011;1984;48.312;9.244;2023-05-07T08:04:38;5.07;;;2.90;;
3939;SDS011;1984;48.312;9.244;2023-05-07T08:07:03;2.77;;;2.40;;
3939;SDS011;1984;48.312;9.244;2023-05-07T08:09:29;2.73;;;2.53;;
3939;SDS011;1984;48.312;9.244;2023-05-07T08:11:55;3.57;;;2.13;;
3939;SDS011;1984;48.312;9.244;2023-05-07T08:14:20;7.37;;;2.27;;
3939;SDS011;1984;48.312;9.244;2023-05-07T08:16:46;2.57;;;2.37;;
3939;SDS011;1984;48.312;9.244;2023-05-07T08:19:11;3.53;;;1.90;;
3939;SDS011;1984;48.312;9.244;2023-05-07T08:21:40;3.60;;;2.17;;
3939;SDS011;1984;48.312;9.244;2023-05-07T08:24:06;1.50;;;1.40;;
3939;SDS011;1984;48.312;9.244;2023-05-07T08:26:31;3.47;;;3.07;;
3939;SDS011;1984;48.312;9.244;2023-05-07T08:28:57;2.70;;;1.63;;
3939;SDS011;1984;48.312;9.244;2023-05-07T08:31:22;1.80;;;1.70;;
3939;SDS011;1984;48.312;9.244;2023-05-07T08:33:48;1.47;;;1.37;;
3939;SDS011;1984;48.312;9.244;2023-05-07T08:36:13;2.80;;;1.70;;
3939;SDS011;1984;48.312;9.244;2023-05-07T08:38:39;1.90;;;1.67;;
3939;SDS011;1984;48.312;9.244;2023-05-07T08:41:12;1.77;;;1.40;;
3939;SDS011;1984;48.312;9.244;2023-05-07T08:43:38;5.13;;;1.80;;
3939;SDS011;1984;48.312;9.244;2023-05-07T08:46:06;1.60;;;1.50;;
3939;SDS011;1984;48.312;9.244;2023-05-07T08:48:34;1.90;;;1.40;;
3939;SDS011;1984;48.312;9.244;2023-05-07T08:51:00;2.80;;;2.27;;
3939;SDS011;1984;48.312;9.244;2023-05-07T08:53:26;1.53;;;1.37;;
3939;SDS011;1984;48.312;9.244;2023-05-07T08:55:52;3.30;;;1.60;;
3939;SDS011;1984;48.312;9.244;2023-05-07T08:58:18;2.83;;;1.30;;
3939;SDS011;1984;48.312;9.244;2023-05-07T09:00:43;3.60;;;2.93;;
3939;SDS011;1984;48.312;9.244;2023-05-07T09:03:09;3.17;;;1.40;;
3939;SDS011;1984;48.312;9.244;2023-05-07T09:05:39;2.80;;;1.70;;
3939;SDS011;1984;48.312;9.244;2023-05-07T09:08:05;1.63;;;1.23;;
3939;SDS011;1984;48.312;9.244;2023-05-07T09:10:35;5.13;;;1.50;;
3939;SDS011;1984;48.312;9.244;2023-05-07T09:13:00;1.30;;;1.20;;
3939;SDS011;1984;48.312;9.244;2023-05-07T09:15:28;1.30;;;1.20;;
3939;SDS011;1984;48.312;9.244;2023-05-07T09:17:53;2.40;;;1.37;;
3939;SDS011;1984;48.312;9.244;2023-05-07T09:20:19;5.23;;;1.70;;
3939;SDS011;1984;48.312;9.244;2023-05-07T09:22:45;1.73;;;1.57;;
3939;SDS011;1984;48.312;9.244;2023-05-07T09:25:10;1.80;;;1.70;;
3939;SDS011;1984;48.312;9.244;2023-05-07T09:27:36;1.93;;;1.70;;
3939;SDS011;1984;48.312;9.244;2023-05-07T09:30:05;2.00;;;1.30;;
3939;SDS011;1984;48.312;9.244;2023-05-07T09:32:34;1.10;;;1.03;;
3939;SDS011;1984;48.312;9.244;2023-05-07T09:35:01;6.53;;;1.33;;
3939;SDS011;1984;48.312;9.244;2023-05-07T09:37:28;1.50;;;1.40;;
3939;SDS011;1984;48.312;9.244;2023-05-07T09:39:55;1.00;;;1.00;;
3939;SDS011;1984;48.312;9.244;2023-05-07T09:42:25;1.53;;;1.43;;
3939;SDS011;1984;48.312;9.244;2023-05-07T09:44:52;2.13;;;1.40;;
3939;SDS011;1984;48.312;9.244;2023-05-07T09:47:20;1.40;;;1.27;;
3939;SDS011;1984;48.312;9.244;2023-05-07T09:49:49;1.03;;;1.03;;
3939;SDS011;1984;48.312;9.244;2023-05-07T09:52:20;4.20;;;1.00;;
3939;SDS011;1984;48.312;9.244;2023-05-07T09:54:46;1.23;;;1.13;;
3939;SDS011;1984;48.312;9.244;2023-05-07T09:57:14;1.30;;;1.20;;
3939;SDS011;1984;48.312;9.244;2023-05-07T09:59:42;1.70;;;1.60;;
3939;SDS011;1984;48.312;9.244;2023-05-07T10:02:09;4.33;;;1.93;;
3939;SDS011;1984;48.312;9.244;2023-05-07T10:04:35;1.67;;;1.50;;
3939;SDS011;1984;48.312;9.244;2023-05-07T10:07:01;1.50;;;1.40;;
3939;SDS011;1984;48.312;9.244;2023-05-07T10:09:29;7.30;;;1.40;;
3939;SDS011;1984;48.312;9.244;2023-05-07T10:11:55;2.07;;;1.37;;
3939;SDS011;1984;48.312;9.244;2023-05-07T10:14:22;2.10;;;1.60;;
3939;SDS011;1984;48.312;9.244;2023-05-07T10:16:48;2.27;;;1.60;;
3939;SDS011;1984;48.312;9.244;2023-05-07T10:19:14;2.17;;;1.90;;
3939;SDS011;1984;48.312;9.244;2023-05-07T10:21:44;2.00;;;1.50;;
3939;SDS011;1984;48.312;9.244;2023-05-07T10:24:25;1.70;;;1.40;;
3939;SDS011;1984;48.312;9.244;2023-05-07T10:26:52;2.20;;;1.60;;
3939;SDS011;1984;48.312;9.244;2023-05-07T10:29:23;1.50;;;1.40;;
3939;SDS011;1984;48.312;9.244;2023-05-07T10:32:16;4.43;;;1.50;;
3939;SDS011;1984;48.312;9.244;2023-05-07T10:35:02;1.60;;;1.50;;
3939;SDS011;1984;48.312;9.244;2023-05-07T10:37:29;2.97;;;1.77;;
3939;SDS011;1984;48.312;9.244;2023-05-07T10:39:56;2.63;;;1.83;;
3939;SDS011;1984;48.312;9.244;2023-05-07T10:42:22;3.07;;;1.77;;
3939;SDS011;1984;48.312;9.244;2023-05-07T10:44:48;4.93;;;1.70;;
3939;SDS011;1984;48.312;9.244;2023-05-07T10:47:15;2.20;;;1.40;;
3939;SDS011;1984;48.312;9.244;2023-05-07T10:52:12;1.77;;;1.37;;
3939;SDS011;1984;48.312;9.244;2023-05-07T10:54:46;2.60;;;1.50;;
3939;SDS011;1984;48.312;9.244;2023-05-07T10:59:58;3.70;;;2.20;;
3939;SDS011;1984;48.312;9.244;2023-05-07T11:02:23;2.00;;;1.90;;
3939;SDS011;1984;48.312;9.244;2023-05-07T11:05:24;4.30;;;1.93;;
3939;SDS011;1984;48.312;9.244;2023-05-07T11:07:54;2.73;;;1.50;;
3939;SDS011;1984;48.312;9.244;2023-05-07T11:10:20;4.40;;;1.63;;
3939;SDS011;1984;48.312;9.244;2023-05-07T11:12:47;3.30;;;2.50;;
3939;SDS011;1984;48.312;9.244;2023-05-07T11:15:13;2.67;;;2.40;;
3939;SDS011;1984;48.312;9.244;2023-05-07T11:17:59;2.03;;;1.90;;
3939;SDS011;1984;48.312;9.244;2023-05-07T11:28:28;2.03;;;1.93;;
3939;SDS011;1984;48.312;9.244;2023-05-07T11:30:54;3.63;;;2.20;;
3939;SDS011;1984;48.312;9.244;2023-05-07T11:33:21;3.90;;;2.00;;
3939;SDS011;1984;48.312;9.244;2023-05-07T11:35:47;4.17;;;2.30;;
3939;SDS011;1984;48.312;9.244;2023-05-07T11:38:15;2.07;;;1.97;;
3939;SDS011;1984;48.312;9.244;2023-05-07T11:40:56;3.23;;;2.23;;
3939;SDS011;1984;48.312;9.244;2023-05-07T11:43:27;2.30;;;2.10;;
3939;SDS011;1984;48.312;9.244;2023-05-07T11:45:53;3.80;;;2.60;;
3939;SDS011;1984;48.312;9.244;2023-05-07T11:48:18;2.27;;;2.10;;
3939;SDS011;1984;48.312;9.244;2023-05-07T11:50:52;2.60;;;2.40;;
3939;SDS011;1984;48.312;9.244;2023-05-07T11:53:24;1.90;;;1.80;;
3939;SDS011;1984;48.312;9.244;2023-05-07T11:55:52;3.33;;;1.93;;
3939;SDS011;1984;48.312;9.244;2023-05-07T11:58:20;4.30;;;2.40;;
3939;SDS011;1984;48.312;9.244;2023-05-07T12:00:53;3.00;;;2.07;;
3939;SDS011;1984;48.312;9.244;2023-05-07T12:03:19;2.30;;;2.10;;
3939;SDS011;1984;48.312;9.244;2023-05-07T12:05:46;2.43;;;2.00;;
3939;SDS011;1984;48.312;9.244;2023-05-07T12:08:15;6.43;;;2.20;;
3939;SDS011;1984;48.312;9.244;2023-05-07T12:10:42;1.97;;;1.80;;
3939;SDS011;1984;48.312;9.244;2023-05-07T12:13:17;2.43;;;1.90;;
3939;SDS011;1984;48.312;9.244;2023-05-07T12:15:44;3.93;;;2.20;;
3939;SDS011;1984;48.312;9.244;2023-05-07T12:18:10;11.93;;;2.60;;
3939;SDS011;1984;48.312;9.244;2023-05-07T12:20:36;4.20;;;2.47;;
3939;SDS011;1984;48.312;9.244;2023-05-07T12:23:02;5.53;;;2.50;;
3939;SDS011;1984;48.312;9.244;2023-05-07T12:25:35;2.57;;;2.37;;
3939;SDS011;1984;48.312;9.244;2023-05-07T12:28:02;5.60;;;2.40;;
3939;SDS011;1984;48.312;9.244;2023-05-07T12:30:29;3.47;;;2.77;;
3939;SDS011;1984;48.312;9.244;2023-05-07T12:32:56;4.00;;;2.40;;
3939;SDS011;1984;48.312;9.244;2023-05-07T12:35:28;12.10;;;2.20;;
3939;SDS011;1984;48.312;9.244;2023-05-07T12:37:55;3.23;;;2.53;;
3939;SDS011;1984;48.312;9.244;2023-05-07T12:40:21;1.80;;;1.70;;
3939;SDS011;1984;48.312;9.244;2023-05-07T12:42:47;2.30;;;2.10;;
3939;SDS011;1984;48.312;9.244;2023-05-07T12:45:20;3.00;;;2.73;;
3939;SDS011;1984;48.312;9.244;2023-05-07T12:47:45;2.30;;;2.10;;
3939;SDS011;1984;48.312;9.244;2023-05-07T12:50:12;2.30;;;2.10;;
3939;SDS011;1984;48.312;9.244;2023-05-07T12:52:39;5.90;;;2.90;;
3939;SDS011;1984;48.312;9.244;2023-05-07T12:55:05;2.67;;;2.57;;
3939;SDS011;1984;48.312;9.244;2023-05-07T12:57:39;2.93;;;1.63;;
3939;SDS011;1984;48.312;9.244;2023-05-07T13:00:08;2.00;;;1.90;;
3939;SDS011;1984;48.312;9.244;2023-05-07T13:02:37;5.53;;;2.40;;
3939;SDS011;1984;48.312;9.244;2023-05-07T13:05:03;2.40;;;2.23;;
3939;SDS011;1984;48.312;9.244;2023-05-07T13:07:29;3.50;;;2.57;;
3939;SDS011;1984;48.312;9.244;2023-05-07T13:09:55;2.60;;;2.13;;
3939;SDS011;1984;48.312;9.244;2023-05-07T13:12:20;3.83;;;2.10;;
3939;SDS011;1984;48.312;9.244;2023-05-07T13:14:46;2.70;;;2.33;;
3939;SDS011;1984;48.312;9.244;2023-05-07T13:17:11;3.57;;;3.20;;
3939;SDS011;1984;48.312;9.244;2023-05-07T13:19:37;3.33;;;1.97;;
3939;SDS011;1984;48.312;9.244;2023-05-07T13:22:03;3.13;;;2.43;;
3939;SDS011;1984;48.312;9.244;2023-05-07T13:24:28;2.77;;;2.57;;
3939;SDS011;1984;48.312;9.244;2023-05-07T13:26:54;6.93;;;2.77;;
3939;SDS011;1984;48.312;9.244;2023-05-07T13:29:19;13.47;;;6.50;;
3939;SDS011;1984;48.312;9.244;2023-05-07T13:31:50;5.63;;;3.30;;
3939;SDS011;1984;48.312;9.244;2023-05-07T13:34:15;5.60;;;3.80;;
3939;SDS011;1984;48.312;9.244;2023-05-07T13:36:41;3.63;;;2.30;;
3939;SDS011;1984;48.312;9.244;2023-05-07T13:39:06;4.97;;;2.53;;
3939;SDS011;1984;48.312;9.244;2023-05-07T13:41:32;1.67;;;1.57;;
3939;SDS011;1984;48.312;9.244;2023-05-07T13:43:58;2.00;;;1.90;;
3939;SDS011;1984;48.312;9.244;2023-05-07T13:46:23;1.67;;;1.57;;
3939;SDS011;1984;48.312;9.244;2023-05-07T13:48:49;1.50;;;1.40;;
3939;SDS011;1984;48.312;9.244;2023-05-07T13:51:15;2.13;;;1.93;;
3939;SDS011;1984;48.312;9.244;2023-05-07T13:53:41;4.40;;;2.43;;
3939;SDS011;1984;48.312;9.244;2023-05-07T13:56:07;4.63;;;2.70;;
3939;SDS011;1984;48.312;9.244;2023-05-07T13:58:32;1.80;;;1.43;;
3939;SDS011;1984;48.312;9.244;2023-05-07T14:00:58;2.60;;;1.70;;
3939;SDS011;1984;48.312;9.244;2023-05-07T14:03:24;2.73;;;2.07;;
3939;SDS011;1984;48.312;9.244;2023-05-07T14:05:49;3.63;;;2.00;;
3939;SDS011;1984;48.312;9.244;2023-05-07T14:08:15;1.63;;;1.50;;
3939;SDS011;1984;48.312;9.244;2023-05-07T14:10:42;3.60;;;2.10;;
3939;SDS011;1984;48.312;9.244;2023-05-07T14:13:08;4.00;;;2.00;;
3939;SDS011;1984;48.312;9.244;2023-05-07T14:15:33;3.70;;;2.87;;
3939;SDS011;1984;48.312;9.244;2023-05-07T14:17:59;2.80;;;2.20;;
3939;SDS011;1984;48.312;9.244;2023-05-07T14:20:25;3.70;;;2.00;;
3939;SDS011;1984;48.312;9.244;2023-05-07T14:22:51;3.63;;;2.10;;
3939;SDS011;1984;48.312;9.244;2023-05-07T14:25:16;4.63;;;2.53;;
3939;SDS011;1984;48.312;9.244;2023-05-07T14:27:42;6.30;;;2.23;;
3939;SDS011;1984;48.312;9.244;2023-05-07T14:30:08;6.10;;;3.27;;
3939;SDS011;1984;48.312;9.244;2023-05-07T14:32:34;2.80;;;1.87;;
3939;SDS011;1984;48.312;9.244;2023-05-07T14:34:59;1.77;;;1.67;;
3939;SDS011;1984;48.312;9.244;2023-05-07T14:37:25;5.73;;;2.20;;
3939;SDS011;1984;48.312;9.244;2023-05-07T14:39:50;2.30;;;2.10;;
3939;SDS011;1984;48.312;9.244;2023-05-07T14:42:16;7.27;;;2.37;;
3939;SDS011;1984;48.312;9.244;2023-05-07T14:44:42;2.10;;;1.63;;
3939;SDS011;1984;48.312;9.244;2023-05-07T14:47:09;2.33;;;2.17;;
3939;SDS011;1984;48.312;9.244;2023-05-07T14:49:35;4.87;;;2.13;;
3939;SDS011;1984;48.312;9.244;2023-05-07T14:52:00;5.13;;;2.10;;
3939;SDS011;1984;48.312;9.244;2023-05-07T14:54:26;4.50;;;1.90;;
3939;SDS011;1984;48.312;9.244;2023-05-07T14:56:52;3.37;;;1.70;;
3939;SDS011;1984;48.312;9.244;2023-05-07T14:59:18;1.90;;;1.80;;
3939;SDS011;1984;48.312;9.244;2023-05-07T15:01:46;1.53;;;1.43;;
3939;SDS011;1984;48.312;9.244;2023-05-07T15:04:12;1.70;;;1.60;;
3939;SDS011;1984;48.312;9.244;2023-05-07T15:06:38;4.00;;;1.90;;
3939;SDS011;1984;48.312;9.244;2023-05-07T15:09:03;2.80;;;1.73;;
3939;SDS011;1984;48.312;9.244;2023-05-07T15:11:29;1.50;;;1.40;;
3939;SDS011;1984;48.312;9.244;2023-05-07T15:13:55;1.80;;;1.30;;
3939;SDS011;1984;48.312;9.244;2023-05-07T15:16:20;7.20;;;1.63;;
3939;SDS011;1984;48.312;9.244;2023-05-07T15:18:46;1.70;;;1.60;;
3939;SDS011;1984;48.312;9.244;2023-05-07T15:21:12;2.73;;;2.40;;
3939;SDS011;1984;48.312;9.244;2023-05-07T15:23:38;2.80;;;2.20;;